createdAt,value
2022-09-01T00:00:16.646Z,93.30
2022-09-01T00:01:16.627Z,92.76
2022-09-01T00:02:16.671Z,93.26
2022-09-01T00:03:16.572Z,93.40
2022-09-01T00:04:16.618Z,92.96
2022-09-01T00:05:16.565Z,93.05
2022-09-01T00:06:16.531Z,92.65
2022-09-01T00:07:16.552Z,92.55
2022-09-01T00:08:18.376Z,92.65
2022-09-01T00:09:16.496Z,92.55
2022-09-01T00:10:16.508Z,92.55
2022-09-01T00:11:16.483Z,92.25
2022-09-01T00:12:16.470Z,92.35
2022-09-01T00:13:16.462Z,91.60
2022-09-01T00:14:30.626Z,91.70
2022-09-01T00:15:17.508Z,92.00
2022-09-01T00:16:16.491Z,91.19
2022-09-01T00:17:16.404Z,91.19
2022-09-01T00:18:16.525Z,91.35
2022-09-01T00:19:16.388Z,91.60
2022-09-01T00:20:20.313Z,90.89
2022-09-01T00:21:16.410Z,91.15
2022-09-01T00:22:16.382Z,90.79
2022-09-01T00:23:16.359Z,90.89
2022-09-01T00:24:16.351Z,90.95
2022-09-01T00:25:16.360Z,90.99
2022-09-01T00:26:16.384Z,90.85
2022-09-01T00:27:16.301Z,90.85
2022-09-01T00:28:16.334Z,91.55
2022-09-01T00:29:16.291Z,91.15
2022-09-01T00:30:16.278Z,91.55
2022-09-01T00:31:16.331Z,91.35
2022-09-01T00:32:16.266Z,91.39
2022-09-01T00:33:16.265Z,91.80
2022-09-01T00:34:16.221Z,92.00
2022-09-01T00:35:16.265Z,91.94
2022-09-01T00:36:16.282Z,92.25
2022-09-01T00:37:16.215Z,92.35
2022-09-01T00:38:16.270Z,92.76
2022-09-01T00:39:16.162Z,92.76
2022-09-01T00:40:16.249Z,92.65
2022-09-01T00:41:16.185Z,92.55
2022-09-01T00:42:16.146Z,92.76
2022-09-01T00:43:16.190Z,92.76
2022-09-01T00:44:16.110Z,93.05
2022-09-01T00:45:16.101Z,93.05
2022-09-01T00:46:18.315Z,93.16
2022-09-01T00:47:16.082Z,94.07
2022-09-01T00:48:16.211Z,93.91
2022-09-01T00:49:16.066Z,94.21
2022-09-01T00:50:16.052Z,94.11
2022-09-01T00:51:16.058Z,94.42
2022-09-01T00:52:16.049Z,95.07
2022-09-01T00:53:16.045Z,94.46
2022-09-01T00:54:16.046Z,95.37
2022-09-01T00:55:15.992Z,95.47
2022-09-01T00:56:16.013Z,96.12
2022-09-01T00:57:15.975Z,96.22
2022-09-01T00:58:19.580Z,96.02
2022-09-01T00:59:15.944Z,96.12
2022-09-01T01:00:15.936Z,96.12
2022-09-01T01:01:16.022Z,95.92
2022-09-01T01:02:16.037Z,95.82
2022-09-01T01:03:15.916Z,95.51
2022-09-01T01:04:15.922Z,96.42
2022-09-01T01:05:15.889Z,96.67
2022-09-01T01:06:15.879Z,96.37
2022-09-01T01:07:15.865Z,96.88
2022-09-01T01:08:15.926Z,97.94
2022-09-01T01:09:15.855Z,97.99
2022-09-01T01:10:15.832Z,97.83
2022-09-01T01:11:15.832Z,98.54
2022-09-01T01:12:15.811Z,98.49
2022-09-01T01:13:15.809Z,98.08
2022-09-01T01:14:15.822Z,98.43
2022-09-01T01:15:15.782Z,99.04
2022-09-01T01:16:15.838Z,99.75
2022-09-01T01:17:15.794Z,99.99
2022-09-01T01:18:22.867Z,99.60
2022-09-01T01:19:16.734Z,99.80
2022-09-01T01:20:15.722Z,99.60
2022-09-01T01:21:15.742Z,99.99
2022-09-01T01:22:15.728Z,99.99
2022-09-01T01:23:15.687Z,99.99
2022-09-01T01:24:15.676Z,99.99
2022-09-01T01:25:15.678Z,99.91
2022-09-01T01:26:15.680Z,98.54
2022-09-01T01:27:15.681Z,98.34
2022-09-01T01:28:15.660Z,96.78
2022-09-01T01:29:15.680Z,96.47
2022-09-01T01:30:15.616Z,95.62
2022-09-01T01:31:15.699Z,95.57
2022-09-01T01:32:15.591Z,95.51
2022-09-01T01:33:15.592Z,95.11
2022-09-01T01:34:15.576Z,95.42
2022-09-01T01:35:15.568Z,96.12
2022-09-01T01:36:15.580Z,96.02
2022-09-01T01:37:15.575Z,96.02
2022-09-01T01:38:15.534Z,96.33
2022-09-01T01:39:15.527Z,96.88
2022-09-01T01:40:15.708Z,96.57
2022-09-01T01:41:15.543Z,97.79
2022-09-01T01:42:15.507Z,97.89
2022-09-01T01:43:15.484Z,98.14
2022-09-01T01:44:15.477Z,97.83
2022-09-01T01:45:15.452Z,97.94
2022-09-01T01:46:15.551Z,97.73
2022-09-01T01:47:15.524Z,98.03
2022-09-01T01:48:15.426Z,97.73
2022-09-01T01:49:15.423Z,97.78
2022-09-01T01:50:15.452Z,98.90
2022-09-01T01:51:15.392Z,99.60
2022-09-01T01:52:15.394Z,99.30
2022-09-01T01:53:15.376Z,99.50
2022-09-01T01:54:15.361Z,99.40
2022-09-01T01:55:15.344Z,99.30
2022-09-01T01:56:15.374Z,98.99
2022-09-01T01:57:15.348Z,98.94
2022-09-01T01:58:15.315Z,99.04
2022-09-01T01:59:15.307Z,99.90
2022-09-01T02:00:15.310Z,99.69
2022-09-01T02:01:15.373Z,99.69
2022-09-01T02:02:15.353Z,99.99
2022-09-01T02:03:15.285Z,99.99
2022-09-01T02:04:15.260Z,99.99
2022-09-01T02:05:15.238Z,99.99
2022-09-01T02:06:15.282Z,99.99
2022-09-01T02:07:15.244Z,99.99
2022-09-01T02:08:15.204Z,99.99
2022-09-01T02:09:15.196Z,99.99
2022-09-01T02:10:15.181Z,99.99
2022-09-01T02:11:15.197Z,99.99
2022-09-01T02:12:16.056Z,99.99
2022-09-01T02:13:15.199Z,99.99
2022-09-01T02:14:15.159Z,99.99
2022-09-01T02:15:15.137Z,99.99
2022-09-01T02:16:15.200Z,99.99
2022-09-01T02:17:15.108Z,99.99
2022-09-01T02:18:15.136Z,99.99
2022-09-01T02:19:15.090Z,99.99
2022-09-01T02:20:15.100Z,99.99
2022-09-01T02:21:18.349Z,99.99
2022-09-01T02:22:15.078Z,99.89
2022-09-01T02:23:15.055Z,99.89
2022-09-01T02:24:15.098Z,99.99
2022-09-01T02:25:15.026Z,99.99
2022-09-01T02:26:16.866Z,99.99
2022-09-01T02:27:15.064Z,99.99
2022-09-01T02:28:15.008Z,99.99
2022-09-01T02:29:14.988Z,99.99
2022-09-01T02:30:14.994Z,99.99
2022-09-01T02:31:15.071Z,99.99
2022-09-01T02:32:14.952Z,99.99
2022-09-01T02:33:14.940Z,99.99
2022-09-01T02:34:14.990Z,99.99
2022-09-01T02:35:14.947Z,99.99
2022-09-01T02:36:14.922Z,99.99
2022-09-01T02:37:14.916Z,99.99
2022-09-01T02:38:14.899Z,99.99
2022-09-01T02:39:14.882Z,99.99
2022-09-01T02:40:14.903Z,99.99
2022-09-01T02:41:14.866Z,99.99
2022-09-01T02:42:14.895Z,99.99
2022-09-01T02:43:14.838Z,99.99
2022-09-01T02:44:14.845Z,99.99
2022-09-01T02:45:14.865Z,99.99
2022-09-01T02:46:14.975Z,99.99
2022-09-01T02:47:14.793Z,99.99
2022-09-01T02:48:14.792Z,99.99
2022-09-01T02:49:14.772Z,99.99
2022-09-01T02:50:14.810Z,99.99
2022-09-01T02:51:14.785Z,99.99
2022-09-01T02:52:14.766Z,99.99
2022-09-01T02:53:14.721Z,99.99
2022-09-01T02:54:14.745Z,99.99
2022-09-01T02:55:14.707Z,99.99
2022-09-01T02:56:14.694Z,99.99
2022-09-01T02:57:14.688Z,99.55
2022-09-01T02:58:14.688Z,99.65
2022-09-01T02:59:14.724Z,99.55
2022-09-01T03:00:14.661Z,99.99
2022-09-01T03:01:14.702Z,99.99
2022-09-01T03:02:14.659Z,99.99
2022-09-01T03:03:14.631Z,99.95
2022-09-01T03:04:14.627Z,99.99
2022-09-01T03:05:14.629Z,99.99
2022-09-01T03:06:14.580Z,99.99
2022-09-01T03:07:14.574Z,99.99
2022-09-01T03:08:14.571Z,99.99
2022-09-01T03:09:14.588Z,99.99
2022-09-01T03:10:14.526Z,99.99
2022-09-01T03:11:14.545Z,99.99
2022-09-01T03:12:14.544Z,99.99
2022-09-01T03:13:14.510Z,99.99
2022-09-01T03:14:14.556Z,99.99
2022-09-01T03:15:14.479Z,99.99
2022-09-01T03:16:14.644Z,99.99
2022-09-01T03:17:14.464Z,99.99
2022-09-01T03:18:14.502Z,99.99
2022-09-01T03:19:14.474Z,99.99
2022-09-01T03:20:14.482Z,99.99
2022-09-01T03:21:14.456Z,99.99
2022-09-01T03:22:14.441Z,99.99
2022-09-01T03:23:14.396Z,99.99
2022-09-01T03:24:14.429Z,99.99
2022-09-01T03:25:14.373Z,99.99
2022-09-01T03:26:14.419Z,99.99
2022-09-01T03:27:14.390Z,99.99
2022-09-01T03:28:14.354Z,99.99
2022-09-01T03:29:14.349Z,99.99
2022-09-01T03:30:14.332Z,99.99
2022-09-01T03:31:14.454Z,99.99
2022-09-01T03:32:14.355Z,99.99
2022-09-01T03:33:14.301Z,99.99
2022-09-01T03:34:14.277Z,99.99
2022-09-01T03:35:14.266Z,99.99
2022-09-01T03:36:15.454Z,99.99
2022-09-01T03:37:14.275Z,99.99
2022-09-01T03:38:14.229Z,99.99
2022-09-01T03:39:16.794Z,99.99
2022-09-01T03:40:14.301Z,99.99
2022-09-01T03:41:14.218Z,99.99
2022-09-01T03:42:14.213Z,99.99
2022-09-01T03:43:14.171Z,99.99
2022-09-01T03:44:14.219Z,99.99
2022-09-01T03:45:14.150Z,99.99
2022-09-01T03:46:14.248Z,99.99
2022-09-01T03:47:14.152Z,99.99
2022-09-01T03:48:14.143Z,99.99
2022-09-01T03:49:14.183Z,99.99
2022-09-01T03:50:14.105Z,99.99
2022-09-01T03:51:14.118Z,99.99
2022-09-01T03:52:14.089Z,99.99
2022-09-01T03:53:14.105Z,99.99
2022-09-01T03:54:14.084Z,99.99
2022-09-01T03:55:14.051Z,99.99
2022-09-01T03:56:14.147Z,99.99
2022-09-01T03:57:14.429Z,99.99
2022-09-01T03:58:14.023Z,99.99
2022-09-01T03:59:14.001Z,99.99
2022-09-01T04:00:14.008Z,99.99
2022-09-01T04:01:14.102Z,99.99
2022-09-01T04:02:14.051Z,99.99
2022-09-01T04:03:13.955Z,99.99
2022-09-01T04:04:14.081Z,99.99
2022-09-01T04:05:14.002Z,99.99
2022-09-01T04:06:14.020Z,99.99
2022-09-01T04:07:19.265Z,99.99
2022-09-01T04:08:14.918Z,99.99
2022-09-01T04:09:13.960Z,99.99
2022-09-01T04:10:13.918Z,99.99
2022-09-01T04:11:13.929Z,99.99
2022-09-01T04:12:13.884Z,99.99
2022-09-01T04:13:13.883Z,99.99
2022-09-01T04:14:13.913Z,99.99
2022-09-01T04:15:13.852Z,99.99
2022-09-01T04:16:13.883Z,99.99
2022-09-01T04:17:13.834Z,99.99
2022-09-01T04:18:13.821Z,99.99
2022-09-01T04:19:13.787Z,99.99
2022-09-01T04:20:13.770Z,99.99
2022-09-01T04:21:13.786Z,99.99
2022-09-01T04:22:13.801Z,99.99
2022-09-01T04:23:13.757Z,99.99
2022-09-01T04:24:13.755Z,99.99
2022-09-01T04:25:13.732Z,99.99
2022-09-01T04:26:13.725Z,99.99
2022-09-01T04:27:13.778Z,99.99
2022-09-01T04:28:13.712Z,99.99
2022-09-01T04:29:13.703Z,99.99
2022-09-01T04:30:13.676Z,99.99
2022-09-01T04:31:13.750Z,99.99
2022-09-01T04:32:13.657Z,99.99
2022-09-01T04:33:13.640Z,99.99
2022-09-01T04:34:13.652Z,99.99
2022-09-01T04:35:13.649Z,99.99
2022-09-01T04:36:13.620Z,99.99
2022-09-01T04:37:13.624Z,99.99
2022-09-01T04:38:13.653Z,99.99
2022-09-01T04:39:13.601Z,99.99
2022-09-01T04:40:13.660Z,99.99
2022-09-01T04:41:13.614Z,99.99
2022-09-01T04:42:13.544Z,99.99
2022-09-01T04:43:13.550Z,99.99
2022-09-01T04:44:13.569Z,99.99
2022-09-01T04:45:17.365Z,99.99
2022-09-01T04:46:14.596Z,99.99
2022-09-01T04:47:13.489Z,99.99
2022-09-01T04:48:13.501Z,99.99
2022-09-01T04:49:13.508Z,99.99
2022-09-01T04:50:13.454Z,99.99
2022-09-01T04:51:13.465Z,99.99
2022-09-01T04:52:13.478Z,99.99
2022-09-01T04:53:13.451Z,99.99
2022-09-01T04:54:13.414Z,99.99
2022-09-01T04:55:13.409Z,99.99
2022-09-01T04:56:13.425Z,99.99
2022-09-01T04:57:13.384Z,99.99
2022-09-01T04:58:13.397Z,99.99
2022-09-01T04:59:13.393Z,99.99
2022-09-01T05:00:13.341Z,99.99
2022-09-01T05:01:13.409Z,99.99
2022-09-01T05:02:13.388Z,99.99
2022-09-01T05:03:13.356Z,99.99
2022-09-01T05:04:13.313Z,99.99
2022-09-01T05:05:13.289Z,99.99
2022-09-01T05:06:13.289Z,99.99
2022-09-01T05:07:13.281Z,99.99
2022-09-01T05:08:13.245Z,99.99
2022-09-01T05:09:14.292Z,99.99
2022-09-01T05:10:13.225Z,99.99
2022-09-01T05:11:13.289Z,99.99
2022-09-01T05:12:15.982Z,99.99
2022-09-01T05:13:13.216Z,99.99
2022-09-01T05:14:13.196Z,99.99
2022-09-01T05:15:13.173Z,99.99
2022-09-01T05:16:13.580Z,99.99
2022-09-01T05:17:13.163Z,99.99
2022-09-01T05:18:13.143Z,99.99
2022-09-01T05:19:13.138Z,99.99
2022-09-01T05:20:13.166Z,99.99
2022-09-01T05:21:13.148Z,99.99
2022-09-01T05:22:13.099Z,99.99
2022-09-01T05:23:13.101Z,99.99
2022-09-01T05:24:13.082Z,99.99
2022-09-01T05:25:13.097Z,99.99
2022-09-01T05:26:13.086Z,99.99
2022-09-01T05:27:13.066Z,99.99
2022-09-01T05:28:13.181Z,99.99
2022-09-01T05:29:13.005Z,99.99
2022-09-01T05:30:13.037Z,99.99
2022-09-01T05:31:13.114Z,99.99
2022-09-01T05:32:13.057Z,99.99
2022-09-01T05:33:12.975Z,99.99
2022-09-01T05:34:13.786Z,99.99
2022-09-01T05:35:12.976Z,99.99
2022-09-01T05:36:12.934Z,99.99
2022-09-01T05:37:13.057Z,99.99
2022-09-01T05:38:12.967Z,99.99
2022-09-01T05:39:12.931Z,99.99
2022-09-01T05:40:12.976Z,99.99
2022-09-01T05:41:12.894Z,99.99
2022-09-01T05:42:12.898Z,99.99
2022-09-01T05:43:12.969Z,99.99
2022-09-01T05:44:12.852Z,99.99
2022-09-01T05:45:12.860Z,99.99
2022-09-01T05:46:12.973Z,99.99
2022-09-01T05:47:14.770Z,99.99
2022-09-01T05:48:13.811Z,99.99
2022-09-01T05:49:12.847Z,99.99
2022-09-01T05:50:15.411Z,99.99
2022-09-01T05:51:33.524Z,99.99
2022-09-01T05:52:14.045Z,99.99
2022-09-01T05:53:12.851Z,99.99
2022-09-01T05:54:12.752Z,99.99
2022-09-01T05:55:12.736Z,99.99
2022-09-01T05:56:12.945Z,99.99
2022-09-01T05:57:33.149Z,99.99
2022-09-01T05:58:13.805Z,99.99
2022-09-01T05:59:28.361Z,99.99
2022-09-01T06:00:13.708Z,99.99
2022-09-01T06:01:12.686Z,99.99
2022-09-01T06:02:12.788Z,99.99
2022-09-01T06:03:12.932Z,99.99
2022-09-01T06:04:12.639Z,99.99
2022-09-01T06:05:12.655Z,99.99
2022-09-01T06:06:12.656Z,99.99
2022-09-01T06:07:15.717Z,99.99
2022-09-01T06:08:12.952Z,99.99
2022-09-01T06:09:12.584Z,99.99
2022-09-01T06:10:12.577Z,99.99
2022-09-01T06:11:12.579Z,99.99
2022-09-01T06:12:12.577Z,99.99
2022-09-01T06:13:12.567Z,99.99
2022-09-01T06:14:12.550Z,99.99
2022-09-01T06:15:12.555Z,99.99
2022-09-01T06:16:12.679Z,99.99
2022-09-01T06:17:13.565Z,99.99
2022-09-01T06:18:12.495Z,99.99
2022-09-01T06:19:12.482Z,99.99
2022-09-01T06:20:12.460Z,99.99
2022-09-01T06:21:12.461Z,99.99
2022-09-01T06:22:12.597Z,99.99
2022-09-01T06:23:12.531Z,99.99
2022-09-01T06:24:12.460Z,99.99
2022-09-01T06:25:12.507Z,99.99
2022-09-01T06:26:12.646Z,99.99
2022-09-01T06:27:12.382Z,99.99
2022-09-01T06:28:12.371Z,99.99
2022-09-01T06:29:12.365Z,99.99
2022-09-01T06:30:12.389Z,99.99
2022-09-01T06:31:12.404Z,99.99
2022-09-01T06:32:12.393Z,99.99
2022-09-01T06:33:12.456Z,99.99
2022-09-01T06:34:12.408Z,99.99
2022-09-01T06:35:12.920Z,99.99
2022-09-01T06:36:12.304Z,99.99
2022-09-01T06:37:12.286Z,99.99
2022-09-01T06:38:12.274Z,99.99
2022-09-01T06:39:12.285Z,99.99
2022-09-01T06:40:12.315Z,99.99
2022-09-01T06:41:12.275Z,99.99
2022-09-01T06:42:12.327Z,99.99
2022-09-01T06:43:13.338Z,99.99
2022-09-01T06:44:14.641Z,99.99
2022-09-01T06:45:12.194Z,99.99
2022-09-01T06:46:12.268Z,99.99
2022-09-01T06:47:12.174Z,99.99
2022-09-01T06:48:12.186Z,99.99
2022-09-01T06:49:12.214Z,99.99
2022-09-01T06:50:12.259Z,99.99
2022-09-01T06:51:17.097Z,99.99
2022-09-01T06:52:13.197Z,99.99
2022-09-01T06:54:14.735Z,99.99
2022-09-01T06:55:12.073Z,99.99
2022-09-01T06:56:12.063Z,99.99
2022-09-01T06:58:14.007Z,99.99
2022-09-01T06:59:12.044Z,99.99
2022-09-01T07:00:12.194Z,99.99
2022-09-01T07:01:12.367Z,99.99
2022-09-01T07:02:17.228Z,99.99
2022-09-01T07:03:13.104Z,99.99
2022-09-01T07:04:13.382Z,99.99
2022-09-01T07:05:58.863Z,99.99
2022-09-01T07:06:59.079Z,99.99
2022-09-01T07:08:13.000Z,99.99
2022-09-01T07:09:20.181Z,99.99
2022-09-01T07:12:07.139Z,97.77
2022-09-01T07:12:28.373Z,96.50
2022-09-01T07:13:12.902Z,96.01
2022-09-01T07:14:15.666Z,94.76
2022-09-01T07:17:28.144Z,89.50
2022-09-01T07:18:14.223Z,88.49
2022-09-01T07:19:12.335Z,89.20
2022-09-01T07:20:27.607Z,89.66
2022-09-01T07:22:35.845Z,86.78
2022-09-01T07:23:12.776Z,85.38
2022-09-01T07:24:11.813Z,84.89
2022-09-01T07:25:12.750Z,84.55
2022-09-01T07:26:11.771Z,82.15
2022-09-01T07:27:11.798Z,82.05
2022-09-01T07:28:25.436Z,83.35
2022-09-01T07:29:12.733Z,82.27
2022-09-01T07:30:11.701Z,80.39
2022-09-01T07:35:12.649Z,78.79
2022-09-01T07:36:27.975Z,80.33
2022-09-01T07:42:59.234Z,99.98
2022-09-01T07:43:12.987Z,77.74
2022-09-01T07:44:11.593Z,77.14
2022-09-01T07:45:27.861Z,76.48
2022-09-01T07:47:20.557Z,76.78
2022-09-01T07:48:36.055Z,75.89
2022-09-01T07:50:37.029Z,74.71
2022-09-01T07:52:12.475Z,77.73
2022-09-01T07:53:11.601Z,75.94
2022-09-01T07:54:11.778Z,76.70
2022-09-01T07:55:11.595Z,76.72
2022-09-01T07:56:11.433Z,72.34
2022-09-01T07:57:11.421Z,75.63
2022-09-01T07:58:11.397Z,74.26
2022-09-01T07:59:15.367Z,72.77
2022-09-01T08:00:11.385Z,73.14
2022-09-01T08:01:11.430Z,74.24
2022-09-01T08:02:11.596Z,73.17
2022-09-01T08:03:11.547Z,72.71
2022-09-01T08:04:13.007Z,69.59
2022-09-01T08:05:11.321Z,72.71
2022-09-01T08:06:11.349Z,71.55
2022-09-01T08:07:15.442Z,71.98
2022-09-01T08:08:18.840Z,72.08
2022-09-01T08:09:17.302Z,71.01
2022-09-01T08:10:12.277Z,70.39
2022-09-01T08:11:11.344Z,72.38
2022-09-01T08:12:11.597Z,71.12
2022-09-01T08:13:15.248Z,69.53
2022-09-01T08:14:11.226Z,72.41
2022-09-01T08:15:41.187Z,75.12
2022-09-01T08:16:19.521Z,70.42
2022-09-01T08:18:14.354Z,72.41
2022-09-01T08:19:18.363Z,72.97
2022-09-01T08:20:14.085Z,71.15
2022-09-01T08:21:13.036Z,75.48
2022-09-01T08:22:12.996Z,72.71
2022-09-01T08:23:11.137Z,72.31
2022-09-01T08:24:11.122Z,73.36
2022-09-01T08:25:11.116Z,69.98
2022-09-01T08:26:11.103Z,69.62
2022-09-01T08:27:11.087Z,68.66
2022-09-01T08:28:11.083Z,69.59
2022-09-01T08:29:11.171Z,69.72
2022-09-01T08:30:14.273Z,69.76
2022-09-01T08:31:11.544Z,68.76
2022-09-01T08:32:11.032Z,71.04
2022-09-01T08:33:11.098Z,69.56
2022-09-01T08:34:11.017Z,69.16
2022-09-01T08:35:11.094Z,71.18
2022-09-01T08:36:10.983Z,71.37
2022-09-01T08:37:10.997Z,70.98
2022-09-01T08:38:11.522Z,68.37
2022-09-01T08:39:12.029Z,69.72
2022-09-01T08:40:11.163Z,69.82
2022-09-01T08:41:10.969Z,69.95
2022-09-01T08:42:10.937Z,68.13
2022-09-01T08:43:19.506Z,71.01
2022-09-01T08:44:11.911Z,68.33
2022-09-01T08:45:10.941Z,68.20
2022-09-01T08:46:10.946Z,66.42
2022-09-01T08:47:13.627Z,65.75
2022-09-01T08:49:25.369Z,71.61
2022-09-01T08:50:11.907Z,70.84
2022-09-01T08:51:15.089Z,68.93
2022-09-01T08:52:11.834Z,68.90
2022-09-01T08:53:10.845Z,66.69
2022-09-01T08:54:10.827Z,64.54
2022-09-01T08:55:10.838Z,66.55
2022-09-01T08:56:11.045Z,69.76
2022-09-01T08:57:11.083Z,64.50
2022-09-01T08:58:10.774Z,69.03
2022-09-01T08:59:10.751Z,69.23
2022-09-01T09:00:10.802Z,67.90
2022-09-01T09:01:10.837Z,65.26
2022-09-01T09:02:10.726Z,69.53
2022-09-01T09:03:10.802Z,69.29
2022-09-01T09:04:10.718Z,67.90
2022-09-01T09:05:15.797Z,64.47
2022-09-01T09:06:10.842Z,67.54
2022-09-01T09:07:10.673Z,69.43
2022-09-01T09:08:10.654Z,68.53
2022-09-01T09:09:10.665Z,68.96
2022-09-01T09:10:10.731Z,69.42
2022-09-01T09:11:10.612Z,65.00
2022-09-01T09:12:10.651Z,68.37
2022-09-01T09:13:11.003Z,68.27
2022-09-01T09:14:10.916Z,67.24
2022-09-01T09:15:10.793Z,67.18
2022-09-01T09:16:10.645Z,66.52
2022-09-01T09:17:10.565Z,69.46
2022-09-01T09:18:34.438Z,70.98
2022-09-01T09:19:10.587Z,67.41
2022-09-01T09:20:10.565Z,69.36
2022-09-01T09:21:10.496Z,68.24
2022-09-01T09:22:11.503Z,67.21
2022-09-01T09:23:11.330Z,65.99
2022-09-01T09:24:10.673Z,64.28
2022-09-01T09:25:10.485Z,68.43
2022-09-01T09:26:10.932Z,63.22
2022-09-01T09:27:11.197Z,66.39
2022-09-01T09:28:10.485Z,67.18
2022-09-01T09:29:10.421Z,66.65
2022-09-01T09:30:11.724Z,68.93
2022-09-01T09:31:12.043Z,65.80
2022-09-01T09:32:44.369Z,69.65
2022-09-01T09:34:11.387Z,65.47
2022-09-01T09:35:10.377Z,66.95
2022-09-01T09:36:10.345Z,64.28
2022-09-01T09:37:10.376Z,67.08
2022-09-01T09:38:10.355Z,66.39
2022-09-01T09:39:10.312Z,63.32
2022-09-01T09:40:12.899Z,66.69
2022-09-01T09:41:17.316Z,66.95
2022-09-01T09:42:11.391Z,62.79
2022-09-01T09:43:10.295Z,64.28
2022-09-01T09:44:11.465Z,66.75
2022-09-01T09:45:10.273Z,59.44
2022-09-01T09:46:23.347Z,61.18
2022-09-01T09:47:33.575Z,63.68
2022-09-01T09:48:11.281Z,63.09
2022-09-01T09:49:10.265Z,63.29
2022-09-01T09:50:10.628Z,63.89
2022-09-01T09:51:10.366Z,66.78
2022-09-01T09:52:10.320Z,67.44
2022-09-01T09:53:10.175Z,65.43
2022-09-01T09:54:10.186Z,67.14
2022-09-01T09:55:10.188Z,66.62
2022-09-01T09:56:10.147Z,68.99
2022-09-01T09:57:10.132Z,65.99
2022-09-01T09:58:12.547Z,66.16
2022-09-01T09:59:10.831Z,66.78
2022-09-01T10:00:11.269Z,66.19
2022-09-01T10:01:10.130Z,67.28
2022-09-01T10:02:10.077Z,67.05
2022-09-01T10:03:11.251Z,64.94
2022-09-01T10:04:10.169Z,68.93
2022-09-01T10:05:10.081Z,64.48
2022-09-01T10:06:10.059Z,64.48
2022-09-01T10:07:10.169Z,62.54
2022-09-01T10:08:12.264Z,62.47
2022-09-01T10:09:10.035Z,66.06
2022-09-01T10:10:09.994Z,63.29
2022-09-01T10:11:10.002Z,66.55
2022-09-01T10:12:10.026Z,62.10
2022-09-01T10:13:09.962Z,61.41
2022-09-01T10:14:10.053Z,63.09
2022-09-01T10:15:12.698Z,69.65
2022-09-01T10:16:11.312Z,65.34
2022-09-01T10:17:13.125Z,66.52
2022-09-01T10:18:20.033Z,66.39
2022-09-01T10:19:12.800Z,66.19
2022-09-01T10:20:11.353Z,63.00
2022-09-01T10:21:09.905Z,65.17
2022-09-01T10:22:09.907Z,65.96
2022-09-01T10:23:15.332Z,65.33
2022-09-01T10:24:21.002Z,66.71
2022-09-01T10:25:10.961Z,68.86
2022-09-01T10:26:10.246Z,71.74
2022-09-01T10:27:13.936Z,67.50
2022-09-01T10:28:10.802Z,69.39
2022-09-01T10:29:12.111Z,68.53
2022-09-01T10:30:14.504Z,64.64
2022-09-01T10:31:11.137Z,68.37
2022-09-01T10:32:31.300Z,65.70
2022-09-01T10:33:19.276Z,68.43
2022-09-01T10:34:11.730Z,66.72
2022-09-01T10:35:09.892Z,62.96
2022-09-01T10:36:09.738Z,63.75
2022-09-01T10:37:11.211Z,66.13
2022-09-01T10:38:17.469Z,66.09
2022-09-01T10:39:10.689Z,64.58
2022-09-01T10:40:09.751Z,63.99
2022-09-01T10:41:14.154Z,62.60
2022-09-01T10:42:12.981Z,63.89
2022-09-01T10:43:13.021Z,64.36
2022-09-01T10:44:10.297Z,62.14
2022-09-01T10:45:09.651Z,63.16
2022-09-01T10:46:15.279Z,67.68
2022-09-01T10:47:13.805Z,63.13
2022-09-01T10:48:13.292Z,63.23
2022-09-01T10:49:09.768Z,64.78
2022-09-01T10:50:09.750Z,61.02
2022-09-01T10:51:09.780Z,64.51
2022-09-01T10:52:14.015Z,61.88
2022-09-01T10:53:09.883Z,62.45
2022-09-01T10:54:09.547Z,62.12
2022-09-01T10:55:09.566Z,62.38
2022-09-01T10:56:23.455Z,61.37
2022-09-01T10:57:12.195Z,64.03
2022-09-01T10:59:30.891Z,62.55
2022-09-01T10:59:44.277Z,61.57
2022-09-01T11:00:34.795Z,59.43
2022-09-01T11:01:11.374Z,62.49
2022-09-01T11:02:27.674Z,61.63
2022-09-01T11:04:10.561Z,60.41
2022-09-01T11:05:09.525Z,63.53
2022-09-01T11:06:13.130Z,58.89
2022-09-01T11:07:12.769Z,58.39
2022-09-01T11:08:16.467Z,59.08
2022-09-01T11:09:10.431Z,63.16
2022-09-01T11:10:31.618Z,60.85
2022-09-01T11:11:10.898Z,66.55
2022-09-01T11:12:09.378Z,67.61
2022-09-01T11:13:09.352Z,64.22
2022-09-01T11:14:09.330Z,58.87
2022-09-01T11:15:09.325Z,61.24
2022-09-01T11:16:10.170Z,61.37
2022-09-01T11:17:09.769Z,61.16
2022-09-01T11:18:10.329Z,61.10
2022-09-01T11:19:16.053Z,63.97
2022-09-01T11:20:10.710Z,63.77
2022-09-01T11:21:09.279Z,64.83
2022-09-01T11:22:09.255Z,66.65
2022-09-01T11:23:09.240Z,69.06
2022-09-01T11:24:09.252Z,60.00
2022-09-01T11:25:12.004Z,61.72
2022-09-01T11:26:24.719Z,58.19
2022-09-01T11:27:10.738Z,59.38
2022-09-01T11:28:09.204Z,60.73
2022-09-01T11:29:09.182Z,58.60
2022-09-01T11:30:09.207Z,59.46
2022-09-01T11:31:09.198Z,62.12
2022-09-01T11:32:09.227Z,62.71
2022-09-01T11:33:09.165Z,63.77
2022-09-01T11:34:09.128Z,59.23
2022-09-01T11:35:09.143Z,60.05
2022-09-01T11:36:10.344Z,59.00
2022-09-01T11:37:09.115Z,58.86
2022-09-01T11:38:09.158Z,67.84
2022-09-01T11:39:09.081Z,59.71
2022-09-01T11:40:09.149Z,60.64
2022-09-01T11:41:09.080Z,60.91
2022-09-01T11:42:09.053Z,58.12
2022-09-01T11:43:12.525Z,57.73
2022-09-01T11:44:09.773Z,56.77
2022-09-01T11:45:12.827Z,56.67
2022-09-01T11:46:10.108Z,60.05
2022-09-01T11:47:13.636Z,58.28
2022-09-01T11:48:09.994Z,58.54
2022-09-01T11:49:09.009Z,56.40
2022-09-01T11:50:08.973Z,58.97
2022-09-01T11:51:08.974Z,59.00
2022-09-01T11:52:09.957Z,57.79
2022-09-01T11:53:09.101Z,59.14
2022-09-01T11:54:09.288Z,61.38
2022-09-01T11:55:08.938Z,57.85
2022-09-01T11:56:08.930Z,58.45
2022-09-01T11:57:08.924Z,58.67
2022-09-01T11:58:08.891Z,61.67
2022-09-01T11:59:08.889Z,66.09
2022-09-01T12:00:08.905Z,62.54
2022-09-01T12:01:09.002Z,58.83
2022-09-01T12:02:09.431Z,59.83
2022-09-01T12:03:09.563Z,56.62
2022-09-01T12:04:09.285Z,56.62
2022-09-01T12:05:08.850Z,55.53
2022-09-01T12:06:08.869Z,56.59
2022-09-01T12:07:10.856Z,56.24
2022-09-01T12:08:08.825Z,54.25
2022-09-01T12:09:08.781Z,55.30
2022-09-01T12:10:08.823Z,56.70
2022-09-01T12:11:09.258Z,54.18
2022-09-01T12:12:09.527Z,57.57
2022-09-01T12:13:08.786Z,61.03
2022-09-01T12:14:11.361Z,63.69
2022-09-01T12:15:08.723Z,62.35
2022-09-01T12:16:21.114Z,61.00
2022-09-01T12:17:09.764Z,60.25
2022-09-01T12:18:08.695Z,56.75
2022-09-01T12:19:08.753Z,57.30
2022-09-01T12:20:09.118Z,57.75
2022-09-01T12:21:09.725Z,60.85
2022-09-01T12:22:09.762Z,61.87
2022-09-01T12:23:08.651Z,60.64
2022-09-01T12:24:08.636Z,61.23
2022-09-01T12:25:08.624Z,63.18
2022-09-01T12:26:08.635Z,60.48
2022-09-01T12:27:08.600Z,59.63
2022-09-01T12:28:11.110Z,61.94
2022-09-01T12:29:08.732Z,57.10
2022-09-01T12:30:08.945Z,56.88
2022-09-01T12:31:09.246Z,58.36
2022-09-01T12:32:08.587Z,60.70
2022-09-01T12:33:24.406Z,59.75
2022-09-01T12:34:09.548Z,60.12
2022-09-01T12:35:11.510Z,55.29
2022-09-01T12:36:08.523Z,54.30
2022-09-01T12:37:08.540Z,61.74
2022-09-01T12:38:09.722Z,57.57
2022-09-01T12:39:09.869Z,54.55
2022-09-01T12:40:09.214Z,59.40
2022-09-01T12:41:08.558Z,61.57
2022-09-01T12:42:08.469Z,58.48
2022-09-01T12:43:08.439Z,53.12
2022-09-01T12:44:08.465Z,54.91
2022-09-01T12:45:09.049Z,55.09
2022-09-01T12:46:08.597Z,55.95
2022-09-01T12:47:09.328Z,55.01
2022-09-01T12:48:09.846Z,58.22
2022-09-01T12:49:08.421Z,54.50
2022-09-01T12:50:08.385Z,58.22
2022-09-01T12:51:09.410Z,55.51
2022-09-01T12:52:08.347Z,55.35
2022-09-01T12:53:08.548Z,53.74
2022-09-01T12:54:09.449Z,52.98
2022-09-01T12:55:08.319Z,51.35
2022-09-01T12:56:10.019Z,51.92
2022-09-01T12:57:08.347Z,52.98
2022-09-01T12:58:08.388Z,58.18
2022-09-01T12:59:14.207Z,55.12
2022-09-01T13:00:09.273Z,53.54
2022-09-01T13:01:09.224Z,53.64
2022-09-01T13:02:09.403Z,55.58
2022-09-01T13:03:09.180Z,58.54
2022-09-01T13:04:08.299Z,55.65
2022-09-01T13:05:08.842Z,58.02
2022-09-01T13:06:08.222Z,55.65
2022-09-01T13:07:09.011Z,59.11
2022-09-01T13:08:08.192Z,57.33
2022-09-01T13:09:08.163Z,58.12
2022-09-01T13:10:08.155Z,59.83
2022-09-01T13:11:08.146Z,60.32
2022-09-01T13:12:08.365Z,58.84
2022-09-01T13:13:08.581Z,58.45
2022-09-01T13:14:08.334Z,56.59
2022-09-01T13:15:08.187Z,59.17